Terminal Aerodrome Forecast
Issued by NWS

Home | Current Version | Previous Version | Graphics & Text | Print | Product List | Glossary On
Versions: 1 2 3 4 5 6 7 8 9 10 11 12 13 14 15 16 17
236
FTUS43 KMPX 200235 AAA
TAFAXN
TAF AMD
KAXN 200235Z 2003/2024 28005KT P6SM VCSH SCT050 BKN110
     FM200900 27005KT P6SM BKN110
     FM201300 33008KT P6SM FEW150=

USA.gov is the U.S. government's official web portal to all federal, state and local government web resources and services.